sensor_id;sensor_type;location;lat;lon;timestamp;P1;durP1;ratioP1;P2;durP2;ratioP2
81006;SDS011;70472;47.592;17.640;2023-06-10T00:00:25;7.20;;;7.20;;
81006;SDS011;70472;47.592;17.640;2023-06-10T00:00:58;7.97;;;7.97;;
81006;SDS011;70472;47.592;17.640;2023-06-10T00:01:30;7.93;;;7.93;;
81006;SDS011;70472;47.592;17.640;2023-06-10T00:02:03;7.53;;;7.53;;
81006;SDS011;70472;47.592;17.640;2023-06-10T00:02:35;6.93;;;6.93;;
81006;SDS011;70472;47.592;17.640;2023-06-10T00:03:08;7.03;;;7.03;;
81006;SDS011;70472;47.592;17.640;2023-06-10T00:03:40;7.97;;;7.97;;
81006;SDS011;70472;47.592;17.640;2023-06-10T00:04:16;8.10;;;8.10;;
81006;SDS011;70472;47.592;17.640;2023-06-10T00:04:49;7.50;;;7.50;;
81006;SDS011;70472;47.592;17.640;2023-06-10T00:05:21;7.17;;;7.17;;
81006;SDS011;70472;47.592;17.640;2023-06-10T00:05:53;7.70;;;7.70;;
81006;SDS011;70472;47.592;17.640;2023-06-10T00:06:26;7.63;;;7.63;;
81006;SDS011;70472;47.592;17.640;2023-06-10T00:06:58;7.93;;;7.93;;
81006;SDS011;70472;47.592;17.640;2023-06-10T00:07:31;7.13;;;7.13;;
81006;SDS011;70472;47.592;17.640;2023-06-10T00:08:03;7.00;;;7.00;;
81006;SDS011;70472;47.592;17.640;2023-06-10T00:08:39;6.53;;;6.53;;
81006;SDS011;70472;47.592;17.640;2023-06-10T00:09:12;7.20;;;7.20;;
81006;SDS011;70472;47.592;17.640;2023-06-10T00:09:44;7.67;;;7.67;;
81006;SDS011;70472;47.592;17.640;2023-06-10T00:10:17;7.40;;;7.40;;
81006;SDS011;70472;47.592;17.640;2023-06-10T00:10:49;7.67;;;7.67;;
81006;SDS011;70472;47.592;17.640;2023-06-10T00:11:22;7.40;;;7.40;;
81006;SDS011;70472;47.592;17.640;2023-06-10T00:11:54;7.97;;;7.97;;
81006;SDS011;70472;47.592;17.640;2023-06-10T00:12:27;7.97;;;7.97;;
81006;SDS011;70472;47.592;17.640;2023-06-10T00:12:59;7.93;;;7.93;;
81006;SDS011;70472;47.592;17.640;2023-06-10T00:13:31;7.33;;;7.33;;
81006;SDS011;70472;47.592;17.640;2023-06-10T00:14:04;7.87;;;7.87;;
81006;SDS011;70472;47.592;17.640;2023-06-10T00:14:37;7.50;;;7.50;;
81006;SDS011;70472;47.592;17.640;2023-06-10T00:15:11;7.60;;;7.60;;
81006;SDS011;70472;47.592;17.640;2023-06-10T00:15:43;7.40;;;7.40;;
81006;SDS011;70472;47.592;17.640;2023-06-10T00:16:16;6.90;;;6.90;;
81006;SDS011;70472;47.592;17.640;2023-06-10T00:16:48;7.30;;;7.30;;
81006;SDS011;70472;47.592;17.640;2023-06-10T00:17:21;7.47;;;7.47;;
81006;SDS011;70472;47.592;17.640;2023-06-10T00:17:53;7.33;;;7.33;;
81006;SDS011;70472;47.592;17.640;2023-06-10T00:18:26;7.17;;;7.17;;
81006;SDS011;70472;47.592;17.640;2023-06-10T00:19:02;6.93;;;6.93;;
81006;SDS011;70472;47.592;17.640;2023-06-10T00:19:36;7.07;;;7.07;;
81006;SDS011;70472;47.592;17.640;2023-06-10T00:20:09;7.43;;;7.43;;
81006;SDS011;70472;47.592;17.640;2023-06-10T00:20:42;7.43;;;7.43;;
81006;SDS011;70472;47.592;17.640;2023-06-10T00:21:15;7.50;;;7.50;;
81006;SDS011;70472;47.592;17.640;2023-06-10T00:21:47;7.30;;;7.30;;
81006;SDS011;70472;47.592;17.640;2023-06-10T00:22:20;8.30;;;8.30;;
81006;SDS011;70472;47.592;17.640;2023-06-10T00:22:52;7.97;;;7.97;;
81006;SDS011;70472;47.592;17.640;2023-06-10T00:23:25;7.43;;;7.43;;
81006;SDS011;70472;47.592;17.640;2023-06-10T00:23:57;7.50;;;7.50;;
81006;SDS011;70472;47.592;17.640;2023-06-10T00:24:30;7.57;;;7.57;;
81006;SDS011;70472;47.592;17.640;2023-06-10T00:25:03;6.47;;;6.47;;
81006;SDS011;70472;47.592;17.640;2023-06-10T00:25:37;7.53;;;7.53;;
81006;SDS011;70472;47.592;17.640;2023-06-10T00:26:09;7.10;;;7.10;;
81006;SDS011;70472;47.592;17.640;2023-06-10T00:26:42;6.90;;;6.90;;
81006;SDS011;70472;47.592;17.640;2023-06-10T00:27:15;6.90;;;6.90;;
81006;SDS011;70472;47.592;17.640;2023-06-10T00:27:47;7.43;;;7.43;;
81006;SDS011;70472;47.592;17.640;2023-06-10T00:28:20;7.57;;;7.57;;
81006;SDS011;70472;47.592;17.640;2023-06-10T00:28:52;7.50;;;7.50;;
81006;SDS011;70472;47.592;17.640;2023-06-10T00:29:25;6.50;;;6.50;;
81006;SDS011;70472;47.592;17.640;2023-06-10T00:29:57;7.33;;;7.33;;
81006;SDS011;70472;47.592;17.640;2023-06-10T00:30:30;7.80;;;7.80;;
81006;SDS011;70472;47.592;17.640;2023-06-10T00:31:02;7.67;;;7.67;;
81006;SDS011;70472;47.592;17.640;2023-06-10T00:31:36;7.73;;;7.73;;
81006;SDS011;70472;47.592;17.640;2023-06-10T00:32:10;7.77;;;7.77;;
81006;SDS011;70472;47.592;17.640;2023-06-10T00:32:43;7.47;;;7.47;;
81006;SDS011;70472;47.592;17.640;2023-06-10T00:33:15;7.43;;;7.43;;
81006;SDS011;70472;47.592;17.640;2023-06-10T00:33:47;7.43;;;7.43;;
81006;SDS011;70472;47.592;17.640;2023-06-10T00:34:20;6.73;;;6.73;;
81006;SDS011;70472;47.592;17.640;2023-06-10T00:34:52;7.70;;;7.70;;
81006;SDS011;70472;47.592;17.640;2023-06-10T00:35:25;7.80;;;7.80;;
81006;SDS011;70472;47.592;17.640;2023-06-10T00:35:57;6.97;;;6.97;;
81006;SDS011;70472;47.592;17.640;2023-06-10T00:36:29;8.23;;;8.23;;
81006;SDS011;70472;47.592;17.640;2023-06-10T00:37:02;8.03;;;8.03;;
81006;SDS011;70472;47.592;17.640;2023-06-10T00:37:35;7.70;;;7.70;;
81006;SDS011;70472;47.592;17.640;2023-06-10T00:38:07;7.50;;;7.50;;
81006;SDS011;70472;47.592;17.640;2023-06-10T00:38:40;7.27;;;7.27;;
81006;SDS011;70472;47.592;17.640;2023-06-10T00:39:13;7.90;;;7.90;;
81006;SDS011;70472;47.592;17.640;2023-06-10T00:39:45;7.53;;;7.53;;
81006;SDS011;70472;47.592;17.640;2023-06-10T00:40:18;7.67;;;7.67;;
81006;SDS011;70472;47.592;17.640;2023-06-10T00:40:50;7.37;;;7.37;;
81006;SDS011;70472;47.592;17.640;2023-06-10T00:41:23;7.33;;;7.33;;
81006;SDS011;70472;47.592;17.640;2023-06-10T00:41:55;7.87;;;7.87;;
81006;SDS011;70472;47.592;17.640;2023-06-10T00:42:28;7.07;;;7.07;;
81006;SDS011;70472;47.592;17.640;2023-06-10T00:43:00;7.90;;;7.90;;
81006;SDS011;70472;47.592;17.640;2023-06-10T00:43:33;8.10;;;8.10;;
81006;SDS011;70472;47.592;17.640;2023-06-10T00:44:05;7.80;;;7.80;;
81006;SDS011;70472;47.592;17.640;2023-06-10T00:44:38;7.67;;;7.67;;
81006;SDS011;70472;47.592;17.640;2023-06-10T00:45:10;8.00;;;8.00;;
81006;SDS011;70472;47.592;17.640;2023-06-10T00:45:43;7.47;;;7.47;;
81006;SDS011;70472;47.592;17.640;2023-06-10T00:46:15;6.97;;;6.97;;
81006;SDS011;70472;47.592;17.640;2023-06-10T00:46:48;7.73;;;7.73;;
81006;SDS011;70472;47.592;17.640;2023-06-10T00:47:20;7.70;;;7.70;;
81006;SDS011;70472;47.592;17.640;2023-06-10T00:47:53;7.10;;;7.10;;
81006;SDS011;70472;47.592;17.640;2023-06-10T00:48:26;7.20;;;7.20;;
81006;SDS011;70472;47.592;17.640;2023-06-10T00:49:00;7.20;;;7.20;;
81006;SDS011;70472;47.592;17.640;2023-06-10T00:49:34;6.67;;;6.67;;
81006;SDS011;70472;47.592;17.640;2023-06-10T00:50:07;7.13;;;7.13;;
81006;SDS011;70472;47.592;17.640;2023-06-10T00:50:39;6.70;;;6.70;;
81006;SDS011;70472;47.592;17.640;2023-06-10T00:51:12;6.63;;;6.63;;
81006;SDS011;70472;47.592;17.640;2023-06-10T00:51:46;7.03;;;7.03;;
81006;SDS011;70472;47.592;17.640;2023-06-10T00:52:19;7.23;;;7.23;;
81006;SDS011;70472;47.592;17.640;2023-06-10T00:52:53;7.13;;;7.13;;
81006;SDS011;70472;47.592;17.640;2023-06-10T00:53:27;6.83;;;6.83;;
81006;SDS011;70472;47.592;17.640;2023-06-10T00:54:00;7.17;;;7.17;;
81006;SDS011;70472;47.592;17.640;2023-06-10T00:54:33;6.97;;;6.97;;
81006;SDS011;70472;47.592;17.640;2023-06-10T00:55:05;7.13;;;7.13;;
81006;SDS011;70472;47.592;17.640;2023-06-10T00:55:38;7.23;;;7.23;;
81006;SDS011;70472;47.592;17.640;2023-06-10T00:56:13;7.67;;;7.67;;
81006;SDS011;70472;47.592;17.640;2023-06-10T00:56:46;7.37;;;7.37;;
81006;SDS011;70472;47.592;17.640;2023-06-10T00:57:19;6.93;;;6.93;;
81006;SDS011;70472;47.592;17.640;2023-06-10T00:57:52;6.93;;;6.93;;
81006;SDS011;70472;47.592;17.640;2023-06-10T00:58:25;7.00;;;7.00;;
81006;SDS011;70472;47.592;17.640;2023-06-10T00:58:58;7.40;;;7.40;;
81006;SDS011;70472;47.592;17.640;2023-06-10T00:59:32;7.40;;;7.40;;
81006;SDS011;70472;47.592;17.640;2023-06-10T01:00:05;6.67;;;6.67;;
81006;SDS011;70472;47.592;17.640;2023-06-10T01:00:38;6.93;;;6.93;;
81006;SDS011;70472;47.592;17.640;2023-06-10T01:01:10;6.70;;;6.70;;
81006;SDS011;70472;47.592;17.640;2023-06-10T01:01:43;7.23;;;7.23;;
81006;SDS011;70472;47.592;17.640;2023-06-10T01:02:16;7.70;;;7.70;;
81006;SDS011;70472;47.592;17.640;2023-06-10T01:02:48;6.70;;;6.70;;
81006;SDS011;70472;47.592;17.640;2023-06-10T01:03:21;6.70;;;6.70;;
81006;SDS011;70472;47.592;17.640;2023-06-10T01:03:53;7.27;;;7.27;;
81006;SDS011;70472;47.592;17.640;2023-06-10T01:04:26;6.80;;;6.80;;
81006;SDS011;70472;47.592;17.640;2023-06-10T01:04:59;6.83;;;6.83;;
81006;SDS011;70472;47.592;17.640;2023-06-10T01:05:32;7.43;;;7.43;;
81006;SDS011;70472;47.592;17.640;2023-06-10T01:06:50;7.10;;;7.10;;
81006;SDS011;70472;47.592;17.640;2023-06-10T01:07:24;6.67;;;6.67;;
81006;SDS011;70472;47.592;17.640;2023-06-10T01:08:09;7.67;;;7.67;;
81006;SDS011;70472;47.592;17.640;2023-06-10T01:10:43;7.63;;;7.63;;
81006;SDS011;70472;47.592;17.640;2023-06-10T01:11:29;7.23;;;7.23;;
81006;SDS011;70472;47.592;17.640;2023-06-10T01:12:19;7.13;;;7.13;;
81006;SDS011;70472;47.592;17.640;2023-06-10T01:13:06;6.73;;;6.73;;
81006;SDS011;70472;47.592;17.640;2023-06-10T01:13:43;8.23;;;8.23;;
81006;SDS011;70472;47.592;17.640;2023-06-10T01:14:17;8.33;;;8.33;;
81006;SDS011;70472;47.592;17.640;2023-06-10T01:14:49;7.17;;;7.17;;
81006;SDS011;70472;47.592;17.640;2023-06-10T01:15:22;7.10;;;7.10;;
81006;SDS011;70472;47.592;17.640;2023-06-10T01:15:55;7.20;;;7.20;;
81006;SDS011;70472;47.592;17.640;2023-06-10T01:16:28;7.00;;;7.00;;
81006;SDS011;70472;47.592;17.640;2023-06-10T01:17:01;7.43;;;7.43;;
81006;SDS011;70472;47.592;17.640;2023-06-10T01:17:36;7.23;;;7.23;;
81006;SDS011;70472;47.592;17.640;2023-06-10T01:18:31;7.23;;;7.23;;
81006;SDS011;70472;47.592;17.640;2023-06-10T01:19:04;7.57;;;7.57;;
81006;SDS011;70472;47.592;17.640;2023-06-10T01:19:36;7.67;;;7.67;;
81006;SDS011;70472;47.592;17.640;2023-06-10T01:20:09;7.17;;;7.17;;
81006;SDS011;70472;47.592;17.640;2023-06-10T01:20:42;7.47;;;7.47;;
81006;SDS011;70472;47.592;17.640;2023-06-10T01:21:22;7.33;;;7.33;;
81006;SDS011;70472;47.592;17.640;2023-06-10T01:21:54;7.23;;;7.23;;
81006;SDS011;70472;47.592;17.640;2023-06-10T01:22:27;7.33;;;7.33;;
81006;SDS011;70472;47.592;17.640;2023-06-10T01:23:00;6.63;;;6.63;;
81006;SDS011;70472;47.592;17.640;2023-06-10T01:23:33;7.40;;;7.40;;
81006;SDS011;70472;47.592;17.640;2023-06-10T01:24:06;7.13;;;7.13;;
81006;SDS011;70472;47.592;17.640;2023-06-10T01:24:39;6.80;;;6.80;;
81006;SDS011;70472;47.592;17.640;2023-06-10T01:25:11;7.10;;;7.10;;
81006;SDS011;70472;47.592;17.640;2023-06-10T01:25:55;7.53;;;7.53;;
81006;SDS011;70472;47.592;17.640;2023-06-10T01:26:36;7.90;;;7.90;;
81006;SDS011;70472;47.592;17.640;2023-06-10T01:27:10;7.83;;;7.83;;
81006;SDS011;70472;47.592;17.640;2023-06-10T01:27:47;7.47;;;7.47;;
81006;SDS011;70472;47.592;17.640;2023-06-10T01:29:25;7.70;;;7.70;;
81006;SDS011;70472;47.592;17.640;2023-06-10T01:30:11;8.07;;;8.07;;
81006;SDS011;70472;47.592;17.640;2023-06-10T01:32:21;7.87;;;7.87;;
81006;SDS011;70472;47.592;17.640;2023-06-10T01:33:04;7.23;;;7.23;;
81006;SDS011;70472;47.592;17.640;2023-06-10T01:33:41;7.80;;;7.80;;
81006;SDS011;70472;47.592;17.640;2023-06-10T01:34:18;7.57;;;7.57;;
81006;SDS011;70472;47.592;17.640;2023-06-10T01:34:55;7.57;;;7.57;;
81006;SDS011;70472;47.592;17.640;2023-06-10T01:35:28;7.23;;;7.23;;
81006;SDS011;70472;47.592;17.640;2023-06-10T01:36:03;7.80;;;7.80;;
81006;SDS011;70472;47.592;17.640;2023-06-10T01:36:37;7.00;;;7.00;;
81006;SDS011;70472;47.592;17.640;2023-06-10T01:37:12;8.07;;;8.07;;
81006;SDS011;70472;47.592;17.640;2023-06-10T01:37:49;7.90;;;7.90;;
81006;SDS011;70472;47.592;17.640;2023-06-10T01:38:26;7.90;;;7.90;;
81006;SDS011;70472;47.592;17.640;2023-06-10T01:39:02;8.43;;;8.43;;
81006;SDS011;70472;47.592;17.640;2023-06-10T01:39:36;7.63;;;7.63;;
81006;SDS011;70472;47.592;17.640;2023-06-10T01:40:12;7.73;;;7.73;;
81006;SDS011;70472;47.592;17.640;2023-06-10T01:40:46;7.63;;;7.63;;
81006;SDS011;70472;47.592;17.640;2023-06-10T01:41:21;7.30;;;7.30;;
81006;SDS011;70472;47.592;17.640;2023-06-10T01:41:54;7.43;;;7.43;;
81006;SDS011;70472;47.592;17.640;2023-06-10T01:42:28;7.83;;;7.83;;
81006;SDS011;70472;47.592;17.640;2023-06-10T01:43:01;7.07;;;7.07;;
81006;SDS011;70472;47.592;17.640;2023-06-10T01:43:34;7.80;;;7.80;;
81006;SDS011;70472;47.592;17.640;2023-06-10T01:44:09;7.43;;;7.43;;
81006;SDS011;70472;47.592;17.640;2023-06-10T01:44:44;8.20;;;8.20;;
81006;SDS011;70472;47.592;17.640;2023-06-10T01:45:16;7.23;;;7.23;;
81006;SDS011;70472;47.592;17.640;2023-06-10T01:45:49;7.37;;;7.37;;
81006;SDS011;70472;47.592;17.640;2023-06-10T01:46:21;8.03;;;8.03;;
81006;SDS011;70472;47.592;17.640;2023-06-10T01:46:54;7.87;;;7.87;;
81006;SDS011;70472;47.592;17.640;2023-06-10T01:47:26;7.70;;;7.70;;
81006;SDS011;70472;47.592;17.640;2023-06-10T01:47:58;7.53;;;7.53;;
81006;SDS011;70472;47.592;17.640;2023-06-10T01:48:32;7.83;;;7.83;;
81006;SDS011;70472;47.592;17.640;2023-06-10T01:49:04;7.27;;;7.27;;
81006;SDS011;70472;47.592;17.640;2023-06-10T01:49:37;7.60;;;7.60;;
81006;SDS011;70472;47.592;17.640;2023-06-10T01:50:11;7.87;;;7.87;;
81006;SDS011;70472;47.592;17.640;2023-06-10T01:50:44;8.13;;;8.13;;
81006;SDS011;70472;47.592;17.640;2023-06-10T01:51:16;8.63;;;8.63;;
81006;SDS011;70472;47.592;17.640;2023-06-10T01:51:49;8.50;;;8.50;;
81006;SDS011;70472;47.592;17.640;2023-06-10T01:52:21;7.93;;;7.93;;
81006;SDS011;70472;47.592;17.640;2023-06-10T01:52:54;8.10;;;8.10;;
81006;SDS011;70472;47.592;17.640;2023-06-10T01:53:31;7.67;;;7.67;;
81006;SDS011;70472;47.592;17.640;2023-06-10T01:54:03;8.23;;;8.23;;
81006;SDS011;70472;47.592;17.640;2023-06-10T01:54:36;7.33;;;7.33;;
81006;SDS011;70472;47.592;17.640;2023-06-10T01:55:09;7.67;;;7.67;;
81006;SDS011;70472;47.592;17.640;2023-06-10T01:55:44;7.73;;;7.73;;
81006;SDS011;70472;47.592;17.640;2023-06-10T01:56:16;7.63;;;7.63;;
81006;SDS011;70472;47.592;17.640;2023-06-10T01:56:49;7.83;;;7.83;;
81006;SDS011;70472;47.592;17.640;2023-06-10T01:57:23;8.10;;;8.10;;
81006;SDS011;70472;47.592;17.640;2023-06-10T01:57:55;8.23;;;8.23;;
81006;SDS011;70472;47.592;17.640;2023-06-10T01:58:28;7.47;;;7.47;;
81006;SDS011;70472;47.592;17.640;2023-06-10T01:59:00;7.50;;;7.50;;
81006;SDS011;70472;47.592;17.640;2023-06-10T01:59:32;7.90;;;7.90;;
81006;SDS011;70472;47.592;17.640;2023-06-10T02:00:05;8.30;;;8.30;;
81006;SDS011;70472;47.592;17.640;2023-06-10T02:00:45;8.30;;;8.30;;
81006;SDS011;70472;47.592;17.640;2023-06-10T02:01:18;8.20;;;8.20;;
81006;SDS011;70472;47.592;17.640;2023-06-10T02:01:50;8.40;;;8.40;;
81006;SDS011;70472;47.592;17.640;2023-06-10T02:02:22;8.07;;;8.07;;
81006;SDS011;70472;47.592;17.640;2023-06-10T02:02:55;7.77;;;7.77;;
81006;SDS011;70472;47.592;17.640;2023-06-10T02:03:27;8.37;;;8.37;;
81006;SDS011;70472;47.592;17.640;2023-06-10T02:04:00;7.70;;;7.70;;
81006;SDS011;70472;47.592;17.640;2023-06-10T02:04:35;7.80;;;7.80;;
81006;SDS011;70472;47.592;17.640;2023-06-10T02:05:07;8.13;;;8.13;;
81006;SDS011;70472;47.592;17.640;2023-06-10T02:05:40;7.73;;;7.73;;
81006;SDS011;70472;47.592;17.640;2023-06-10T02:06:13;7.57;;;7.57;;
81006;SDS011;70472;47.592;17.640;2023-06-10T02:06:45;7.93;;;7.93;;
81006;SDS011;70472;47.592;17.640;2023-06-10T02:07:18;7.90;;;7.90;;
81006;SDS011;70472;47.592;17.640;2023-06-10T02:07:50;8.47;;;8.47;;
81006;SDS011;70472;47.592;17.640;2023-06-10T02:08:22;8.13;;;8.13;;
81006;SDS011;70472;47.592;17.640;2023-06-10T02:08:56;8.10;;;8.10;;
81006;SDS011;70472;47.592;17.640;2023-06-10T02:09:28;7.97;;;7.97;;
81006;SDS011;70472;47.592;17.640;2023-06-10T02:10:01;7.67;;;7.67;;
81006;SDS011;70472;47.592;17.640;2023-06-10T02:10:34;8.33;;;8.33;;
81006;SDS011;70472;47.592;17.640;2023-06-10T02:11:06;7.67;;;7.67;;
81006;SDS011;70472;47.592;17.640;2023-06-10T02:11:39;7.50;;;7.50;;
81006;SDS011;70472;47.592;17.640;2023-06-10T02:12:11;7.83;;;7.83;;
81006;SDS011;70472;47.592;17.640;2023-06-10T02:12:45;7.83;;;7.83;;
81006;SDS011;70472;47.592;17.640;2023-06-10T02:13:17;7.90;;;7.90;;
81006;SDS011;70472;47.592;17.640;2023-06-10T02:13:50;8.10;;;8.10;;
81006;SDS011;70472;47.592;17.640;2023-06-10T02:14:22;7.57;;;7.57;;
81006;SDS011;70472;47.592;17.640;2023-06-10T02:14:55;7.80;;;7.80;;
81006;SDS011;70472;47.592;17.640;2023-06-10T02:15:27;8.17;;;8.17;;
81006;SDS011;70472;47.592;17.640;2023-06-10T02:15:59;7.90;;;7.90;;
81006;SDS011;70472;47.592;17.640;2023-06-10T02:16:33;7.90;;;7.90;;
81006;SDS011;70472;47.592;17.640;2023-06-10T02:17:06;7.97;;;7.97;;
81006;SDS011;70472;47.592;17.640;2023-06-10T02:17:38;7.87;;;7.87;;
81006;SDS011;70472;47.592;17.640;2023-06-10T02:18:10;7.60;;;7.60;;
81006;SDS011;70472;47.592;17.640;2023-06-10T02:18:43;8.13;;;8.13;;
81006;SDS011;70472;47.592;17.640;2023-06-10T02:19:15;7.60;;;7.60;;
81006;SDS011;70472;47.592;17.640;2023-06-10T02:19:48;7.13;;;7.13;;
81006;SDS011;70472;47.592;17.640;2023-06-10T02:20:21;7.13;;;7.13;;
81006;SDS011;70472;47.592;17.640;2023-06-10T02:20:54;7.43;;;7.43;;
81006;SDS011;70472;47.592;17.640;2023-06-10T02:21:26;7.80;;;7.80;;
81006;SDS011;70472;47.592;17.640;2023-06-10T02:21:59;7.87;;;7.87;;
81006;SDS011;70472;47.592;17.640;2023-06-10T02:22:31;7.87;;;7.87;;
81006;SDS011;70472;47.592;17.640;2023-06-10T02:23:04;7.87;;;7.87;;
81006;SDS011;70472;47.592;17.640;2023-06-10T02:23:37;7.73;;;7.73;;
81006;SDS011;70472;47.592;17.640;2023-06-10T02:24:09;7.63;;;7.63;;
81006;SDS011;70472;47.592;17.640;2023-06-10T02:24:41;8.30;;;8.30;;
81006;SDS011;70472;47.592;17.640;2023-06-10T02:25:14;8.77;;;8.77;;
81006;SDS011;70472;47.592;17.640;2023-06-10T02:25:46;7.77;;;7.77;;
81006;SDS011;70472;47.592;17.640;2023-06-10T02:26:19;7.53;;;7.53;;
81006;SDS011;70472;47.592;17.640;2023-06-10T02:26:52;7.87;;;7.87;;
81006;SDS011;70472;47.592;17.640;2023-06-10T02:27:26;8.47;;;8.47;;
81006;SDS011;70472;47.592;17.640;2023-06-10T02:27:59;7.73;;;7.73;;
81006;SDS011;70472;47.592;17.640;2023-06-10T02:28:32;8.00;;;8.00;;
81006;SDS011;70472;47.592;17.640;2023-06-10T02:29:04;8.13;;;8.13;;
81006;SDS011;70472;47.592;17.640;2023-06-10T02:29:37;7.37;;;7.37;;
81006;SDS011;70472;47.592;17.640;2023-06-10T02:30:09;8.27;;;8.27;;
81006;SDS011;70472;47.592;17.640;2023-06-10T02:30:42;7.17;;;7.17;;
81006;SDS011;70472;47.592;17.640;2023-06-10T02:31:15;7.00;;;7.00;;
81006;SDS011;70472;47.592;17.640;2023-06-10T02:31:47;7.57;;;7.57;;
81006;SDS011;70472;47.592;17.640;2023-06-10T02:32:20;8.30;;;8.30;;
81006;SDS011;70472;47.592;17.640;2023-06-10T02:32:52;7.57;;;7.57;;
81006;SDS011;70472;47.592;17.640;2023-06-10T02:33:25;7.50;;;7.50;;
81006;SDS011;70472;47.592;17.640;2023-06-10T02:33:58;7.73;;;7.73;;
81006;SDS011;70472;47.592;17.640;2023-06-10T02:34:30;7.67;;;7.67;;
81006;SDS011;70472;47.592;17.640;2023-06-10T02:35:04;8.00;;;8.00;;
81006;SDS011;70472;47.592;17.640;2023-06-10T02:35:38;9.03;;;9.03;;
81006;SDS011;70472;47.592;17.640;2023-06-10T02:36:11;7.93;;;7.93;;
81006;SDS011;70472;47.592;17.640;2023-06-10T02:36:43;7.77;;;7.77;;
81006;SDS011;70472;47.592;17.640;2023-06-10T02:37:16;7.80;;;7.80;;
81006;SDS011;70472;47.592;17.640;2023-06-10T02:37:48;8.70;;;8.70;;
81006;SDS011;70472;47.592;17.640;2023-06-10T02:38:23;8.17;;;8.17;;
81006;SDS011;70472;47.592;17.640;2023-06-10T02:38:55;7.83;;;7.83;;
81006;SDS011;70472;47.592;17.640;2023-06-10T02:39:29;7.87;;;7.87;;
81006;SDS011;70472;47.592;17.640;2023-06-10T02:40:01;8.10;;;8.10;;
81006;SDS011;70472;47.592;17.640;2023-06-10T02:40:35;8.07;;;8.07;;
81006;SDS011;70472;47.592;17.640;2023-06-10T02:41:07;8.00;;;8.00;;
81006;SDS011;70472;47.592;17.640;2023-06-10T02:41:40;7.80;;;7.80;;
81006;SDS011;70472;47.592;17.640;2023-06-10T02:42:12;8.23;;;8.23;;
81006;SDS011;70472;47.592;17.640;2023-06-10T02:42:45;8.50;;;8.50;;
81006;SDS011;70472;47.592;17.640;2023-06-10T02:43:18;7.63;;;7.63;;
81006;SDS011;70472;47.592;17.640;2023-06-10T02:43:51;7.93;;;7.93;;
81006;SDS011;70472;47.592;17.640;2023-06-10T02:44:24;7.93;;;7.93;;
81006;SDS011;70472;47.592;17.640;2023-06-10T02:44:57;9.17;;;9.17;;
81006;SDS011;70472;47.592;17.640;2023-06-10T02:45:38;8.87;;;8.87;;
81006;SDS011;70472;47.592;17.640;2023-06-10T02:46:11;8.67;;;8.67;;
81006;SDS011;70472;47.592;17.640;2023-06-10T02:46:45;8.77;;;8.77;;
81006;SDS011;70472;47.592;17.640;2023-06-10T02:47:17;8.63;;;8.63;;
81006;SDS011;70472;47.592;17.640;2023-06-10T02:47:50;8.47;;;8.47;;
81006;SDS011;70472;47.592;17.640;2023-06-10T02:48:26;8.23;;;8.23;;
81006;SDS011;70472;47.592;17.640;2023-06-10T02:49:00;8.23;;;8.23;;
81006;SDS011;70472;47.592;17.640;2023-06-10T02:49:33;7.73;;;7.73;;
81006;SDS011;70472;47.592;17.640;2023-06-10T02:50:05;8.33;;;8.33;;
81006;SDS011;70472;47.592;17.640;2023-06-10T02:50:44;8.50;;;8.50;;
81006;SDS011;70472;47.592;17.640;2023-06-10T02:51:25;8.60;;;8.60;;
81006;SDS011;70472;47.592;17.640;2023-06-10T02:52:03;8.13;;;8.13;;
81006;SDS011;70472;47.592;17.640;2023-06-10T02:52:36;8.07;;;8.07;;
81006;SDS011;70472;47.592;17.640;2023-06-10T02:53:09;7.80;;;7.80;;
81006;SDS011;70472;47.592;17.640;2023-06-10T02:53:44;8.23;;;8.23;;
81006;SDS011;70472;47.592;17.640;2023-06-10T02:54:17;7.57;;;7.57;;
81006;SDS011;70472;47.592;17.640;2023-06-10T02:54:50;8.17;;;8.17;;
81006;SDS011;70472;47.592;17.640;2023-06-10T02:55:22;8.27;;;8.27;;
81006;SDS011;70472;47.592;17.640;2023-06-10T02:55:58;8.63;;;8.63;;
81006;SDS011;70472;47.592;17.640;2023-06-10T02:56:31;8.40;;;8.40;;
81006;SDS011;70472;47.592;17.640;2023-06-10T02:57:06;8.77;;;8.77;;
81006;SDS011;70472;47.592;17.640;2023-06-10T02:57:38;7.80;;;7.80;;
81006;SDS011;70472;47.592;17.640;2023-06-10T02:58:11;7.80;;;7.80;;
81006;SDS011;70472;47.592;17.640;2023-06-10T02:58:44;7.73;;;7.73;;
81006;SDS011;70472;47.592;17.640;2023-06-10T02:59:18;7.87;;;7.87;;
81006;SDS011;70472;47.592;17.640;2023-06-10T02:59:51;7.97;;;7.97;;
81006;SDS011;70472;47.592;17.640;2023-06-10T03:00:24;7.90;;;7.90;;
81006;SDS011;70472;47.592;17.640;2023-06-10T03:00:56;9.03;;;9.03;;
81006;SDS011;70472;47.592;17.640;2023-06-10T03:01:30;8.63;;;8.63;;
81006;SDS011;70472;47.592;17.640;2023-06-10T03:02:07;8.90;;;8.90;;
81006;SDS011;70472;47.592;17.640;2023-06-10T03:02:46;8.93;;;8.93;;
81006;SDS011;70472;47.592;17.640;2023-06-10T03:03:20;8.20;;;8.20;;
81006;SDS011;70472;47.592;17.640;2023-06-10T03:04:04;9.07;;;9.07;;
81006;SDS011;70472;47.592;17.640;2023-06-10T03:04:38;9.10;;;9.10;;
81006;SDS011;70472;47.592;17.640;2023-06-10T03:05:16;8.57;;;8.57;;
81006;SDS011;70472;47.592;17.640;2023-06-10T03:05:52;8.80;;;8.80;;
81006;SDS011;70472;47.592;17.640;2023-06-10T03:06:26;8.90;;;8.90;;
81006;SDS011;70472;47.592;17.640;2023-06-10T03:07:07;8.20;;;8.20;;
81006;SDS011;70472;47.592;17.640;2023-06-10T03:07:39;9.20;;;9.20;;
81006;SDS011;70472;47.592;17.640;2023-06-10T03:08:12;9.07;;;9.07;;
81006;SDS011;70472;47.592;17.640;2023-06-10T03:08:46;9.10;;;9.10;;
81006;SDS011;70472;47.592;17.640;2023-06-10T03:09:21;9.57;;;9.57;;
81006;SDS011;70472;47.592;17.640;2023-06-10T03:09:58;9.47;;;9.47;;
81006;SDS011;70472;47.592;17.640;2023-06-10T03:10:30;9.10;;;9.10;;
81006;SDS011;70472;47.592;17.640;2023-06-10T03:11:05;8.80;;;8.80;;
81006;SDS011;70472;47.592;17.640;2023-06-10T03:11:39;8.40;;;8.40;;
81006;SDS011;70472;47.592;17.640;2023-06-10T03:12:12;9.07;;;9.07;;
81006;SDS011;70472;47.592;17.640;2023-06-10T03:12:49;9.00;;;9.00;;
81006;SDS011;70472;47.592;17.640;2023-06-10T03:13:21;8.87;;;8.87;;
81006;SDS011;70472;47.592;17.640;2023-06-10T03:13:56;9.07;;;9.07;;
81006;SDS011;70472;47.592;17.640;2023-06-10T03:14:30;9.83;;;9.83;;
81006;SDS011;70472;47.592;17.640;2023-06-10T03:15:03;9.37;;;9.37;;
81006;SDS011;70472;47.592;17.640;2023-06-10T03:15:37;9.00;;;9.00;;
81006;SDS011;70472;47.592;17.640;2023-06-10T03:16:13;9.27;;;9.27;;
81006;SDS011;70472;47.592;17.640;2023-06-10T03:16:46;9.37;;;9.37;;
81006;SDS011;70472;47.592;17.640;2023-06-10T03:17:19;10.30;;;10.30;;
81006;SDS011;70472;47.592;17.640;2023-06-10T03:17:51;9.97;;;9.97;;
81006;SDS011;70472;47.592;17.640;2023-06-10T03:18:25;9.63;;;9.63;;
81006;SDS011;70472;47.592;17.640;2023-06-10T03:18:59;10.33;;;10.33;;
81006;SDS011;70472;47.592;17.640;2023-06-10T03:19:32;10.50;;;10.50;;
81006;SDS011;70472;47.592;17.640;2023-06-10T03:20:05;11.53;;;11.53;;
81006;SDS011;70472;47.592;17.640;2023-06-10T03:20:38;11.40;;;11.40;;
81006;SDS011;70472;47.592;17.640;2023-06-10T03:21:13;10.80;;;10.80;;
81006;SDS011;70472;47.592;17.640;2023-06-10T03:21:49;11.13;;;11.13;;
81006;SDS011;70472;47.592;17.640;2023-06-10T03:22:40;10.43;;;10.43;;
81006;SDS011;70472;47.592;17.640;2023-06-10T03:23:14;9.47;;;9.47;;
81006;SDS011;70472;47.592;17.640;2023-06-10T03:23:47;10.43;;;10.43;;
81006;SDS011;70472;47.592;17.640;2023-06-10T03:24:20;10.27;;;10.27;;
81006;SDS011;70472;47.592;17.640;2023-06-10T03:24:52;10.17;;;10.17;;
81006;SDS011;70472;47.592;17.640;2023-06-10T03:25:25;10.87;;;10.87;;